Alagoa Nova, Brazil
Current Conditions -  °F | °C
As of 11:00 AM on Sunday 21 Dec 2014 (Local Time) from SBKG Reporting Station
Scattered Clouds Scattered Clouds  
Wind Chill: 81°   Ceiling: Unl
Heat Index: 83°   Visibility: 6mi
Dew Point: 68°   Wind: 14mph
Humidity: 65%   Direction: 70°ENE
Pressure: 30.03"   Gusts: NA
Location:  7.07°S, 35.76°W
Report Text: SBKG 211400Z 07012KT 040V100 9999 SCT025 FEW030TCU 27/20 Q1017
Loading
Personal Weather Stations






























Interactive Weather Map New forecast layout! Learn more

10-Day Weather Forecast

Advertisements
Track Severe Weather on mobile